Terminal Aerodrome Forecast
Issued by NWS Binghamton, NY

Home | Current Version | Previous Version | Text Only | Print | Product List | Glossary On
Versions: 1 2 3 4 5 6 7 8 9 10 11 12 13 14 15 16 17 18 19 20 21 22 23 24
000
FTUS41 KBGM 010700 AAA
TAFSYR
TAF AMD
KSYR 010706Z 0107/0206 VRB04KT P6SM -SN OVC025
      TEMPO 0107/0111 3SM -SN OVC015
     FM011400 36006KT P6SM BKN040
     FM020100 05005KT 1 1/2SM -SN OVC015=

USA.gov is the U.S. government's official web portal to all federal, state and local government web resources and services.